sensor_id;sensor_type;location;lat;lon;timestamp;temperature;humidity
64652;HTU21D;51062;45.120;37.660;2023-11-22T00:01:03;6.00;93.02
64652;HTU21D;51062;45.120;37.660;2023-11-22T00:03:29;5.98;92.95
64652;HTU21D;51062;45.120;37.660;2023-11-22T00:05:54;5.96;92.92
64652;HTU21D;51062;45.120;37.660;2023-11-22T00:08:20;5.91;92.90
64652;HTU21D;51062;45.120;37.660;2023-11-22T00:10:46;5.87;92.82
64652;HTU21D;51062;45.120;37.660;2023-11-22T00:13:12;5.84;92.72
64652;HTU21D;51062;45.120;37.660;2023-11-22T00:15:38;5.80;92.66
64652;HTU21D;51062;45.120;37.660;2023-11-22T00:18:04;5.77;92.63
64652;HTU21D;51062;45.120;37.660;2023-11-22T00:20:30;5.70;92.59
64652;HTU21D;51062;45.120;37.660;2023-11-22T00:22:56;5.67;92.61
64652;HTU21D;51062;45.120;37.660;2023-11-22T00:25:22;5.64;92.64
64652;HTU21D;51062;45.120;37.660;2023-11-22T00:27:48;5.63;92.65
64652;HTU21D;51062;45.120;37.660;2023-11-22T00:30:14;5.57;92.60
64652;HTU21D;51062;45.120;37.660;2023-11-22T00:32:40;5.55;92.66
64652;HTU21D;51062;45.120;37.660;2023-11-22T00:35:07;5.51;92.72
64652;HTU21D;51062;45.120;37.660;2023-11-22T00:37:36;5.48;92.82
64652;HTU21D;51062;45.120;37.660;2023-11-22T00:40:02;5.48;92.93
64652;HTU21D;51062;45.120;37.660;2023-11-22T00:42:39;5.47;92.95
64652;HTU21D;51062;45.120;37.660;2023-11-22T00:45:07;5.48;93.00
64652;HTU21D;51062;45.120;37.660;2023-11-22T00:47:33;5.50;93.02
64652;HTU21D;51062;45.120;37.660;2023-11-22T00:50:00;5.49;93.02
64652;HTU21D;51062;45.120;37.660;2023-11-22T00:52:26;5.49;93.03
64652;HTU21D;51062;45.120;37.660;2023-11-22T00:54:53;5.46;92.98
64652;HTU21D;51062;45.120;37.660;2023-11-22T00:57:19;5.43;93.01
64652;HTU21D;51062;45.120;37.660;2023-11-22T00:59:44;5.43;92.96
64652;HTU21D;51062;45.120;37.660;2023-11-22T01:02:11;5.41;92.84
64652;HTU21D;51062;45.120;37.660;2023-11-22T01:04:37;5.38;92.80
64652;HTU21D;51062;45.120;37.660;2023-11-22T01:07:03;5.36;92.81
64652;HTU21D;51062;45.120;37.660;2023-11-22T01:09:35;5.33;92.77
64652;HTU21D;51062;45.120;37.660;2023-11-22T01:12:01;5.27;92.81
64652;HTU21D;51062;45.120;37.660;2023-11-22T01:14:27;5.26;92.90
64652;HTU21D;51062;45.120;37.660;2023-11-22T01:16:53;5.23;92.94
64652;HTU21D;51062;45.120;37.660;2023-11-22T01:19:22;5.19;93.01
64652;HTU21D;51062;45.120;37.660;2023-11-22T01:21:48;5.18;93.12
64652;HTU21D;51062;45.120;37.660;2023-11-22T01:24:14;5.17;93.20
64652;HTU21D;51062;45.120;37.660;2023-11-22T01:26:40;5.15;93.19
64652;HTU21D;51062;45.120;37.660;2023-11-22T01:29:06;5.12;93.18
64652;HTU21D;51062;45.120;37.660;2023-11-22T01:31:32;5.08;93.27
64652;HTU21D;51062;45.120;37.660;2023-11-22T01:33:58;5.08;93.33
64652;HTU21D;51062;45.120;37.660;2023-11-22T01:36:26;5.11;93.27
64652;HTU21D;51062;45.120;37.660;2023-11-22T01:38:52;5.10;93.23
64652;HTU21D;51062;45.120;37.660;2023-11-22T01:41:18;5.11;93.27
64652;HTU21D;51062;45.120;37.660;2023-11-22T01:43:45;5.12;93.30
64652;HTU21D;51062;45.120;37.660;2023-11-22T01:46:17;5.11;93.33
64652;HTU21D;51062;45.120;37.660;2023-11-22T01:48:47;5.12;93.35
64652;HTU21D;51062;45.120;37.660;2023-11-22T01:51:13;5.10;93.35
64652;HTU21D;51062;45.120;37.660;2023-11-22T01:53:38;5.12;93.33
64652;HTU21D;51062;45.120;37.660;2023-11-22T01:56:04;5.12;93.34
64652;HTU21D;51062;45.120;37.660;2023-11-22T01:58:30;5.13;93.36
64652;HTU21D;51062;45.120;37.660;2023-11-22T02:00:56;5.17;93.30
64652;HTU21D;51062;45.120;37.660;2023-11-22T02:03:23;5.17;93.28
64652;HTU21D;51062;45.120;37.660;2023-11-22T02:05:49;5.16;93.27
64652;HTU21D;51062;45.120;37.660;2023-11-22T02:08:16;5.18;93.27
64652;HTU21D;51062;45.120;37.660;2023-11-22T02:10:43;5.20;93.19
64652;HTU21D;51062;45.120;37.660;2023-11-22T02:13:10;5.20;93.19
64652;HTU21D;51062;45.120;37.660;2023-11-22T02:15:36;5.20;93.17
64652;HTU21D;51062;45.120;37.660;2023-11-22T02:18:02;5.20;93.34
64652;HTU21D;51062;45.120;37.660;2023-11-22T02:20:30;5.23;93.38
64652;HTU21D;51062;45.120;37.660;2023-11-22T02:22:56;5.20;93.30
64652;HTU21D;51062;45.120;37.660;2023-11-22T02:25:22;5.13;93.31
64652;HTU21D;51062;45.120;37.660;2023-11-22T02:27:48;5.06;93.35
64652;HTU21D;51062;45.120;37.660;2023-11-22T02:30:14;5.05;93.37
64652;HTU21D;51062;45.120;37.660;2023-11-22T02:32:41;5.04;93.30
64652;HTU21D;51062;45.120;37.660;2023-11-22T02:35:07;5.01;93.37
64652;HTU21D;51062;45.120;37.660;2023-11-22T02:37:34;5.00;93.41
64652;HTU21D;51062;45.120;37.660;2023-11-22T02:40:05;4.97;93.47
64652;HTU21D;51062;45.120;37.660;2023-11-22T02:42:33;4.93;93.47
64652;HTU21D;51062;45.120;37.660;2023-11-22T02:45:00;4.90;93.55
64652;HTU21D;51062;45.120;37.660;2023-11-22T02:47:26;4.88;93.58
64652;HTU21D;51062;45.120;37.660;2023-11-22T02:49:52;4.83;93.62
64652;HTU21D;51062;45.120;37.660;2023-11-22T02:52:18;4.80;93.69
64652;HTU21D;51062;45.120;37.660;2023-11-22T02:54:44;4.80;93.78
64652;HTU21D;51062;45.120;37.660;2023-11-22T02:57:11;4.80;93.87
64652;HTU21D;51062;45.120;37.660;2023-11-22T02:59:40;4.80;93.91
64652;HTU21D;51062;45.120;37.660;2023-11-22T03:02:07;4.79;93.91
64652;HTU21D;51062;45.120;37.660;2023-11-22T03:04:33;4.77;93.95
64652;HTU21D;51062;45.120;37.660;2023-11-22T03:06:59;4.77;93.99
64652;HTU21D;51062;45.120;37.660;2023-11-22T03:09:25;4.76;94.04
64652;HTU21D;51062;45.120;37.660;2023-11-22T03:11:52;4.76;94.05
64652;HTU21D;51062;45.120;37.660;2023-11-22T03:14:18;4.74;94.10
64652;HTU21D;51062;45.120;37.660;2023-11-22T03:16:45;4.76;94.13
64652;HTU21D;51062;45.120;37.660;2023-11-22T03:19:11;4.74;94.19
64652;HTU21D;51062;45.120;37.660;2023-11-22T03:21:39;4.75;94.20
64652;HTU21D;51062;45.120;37.660;2023-11-22T03:24:07;4.74;94.23
64652;HTU21D;51062;45.120;37.660;2023-11-22T03:26:34;4.74;94.29
64652;HTU21D;51062;45.120;37.660;2023-11-22T03:29:00;4.75;94.35
64652;HTU21D;51062;45.120;37.660;2023-11-22T03:31:29;4.77;94.38
64652;HTU21D;51062;45.120;37.660;2023-11-22T03:33:56;4.78;94.40
64652;HTU21D;51062;45.120;37.660;2023-11-22T03:36:22;4.80;94.43
64652;HTU21D;51062;45.120;37.660;2023-11-22T03:38:48;4.81;94.46
64652;HTU21D;51062;45.120;37.660;2023-11-22T03:41:15;4.84;94.47
64652;HTU21D;51062;45.120;37.660;2023-11-22T03:43:41;4.88;94.49
64652;HTU21D;51062;45.120;37.660;2023-11-22T03:46:06;4.93;94.43
64652;HTU21D;51062;45.120;37.660;2023-11-22T03:48:32;4.95;94.38
64652;HTU21D;51062;45.120;37.660;2023-11-22T03:50:59;5.00;94.38
64652;HTU21D;51062;45.120;37.660;2023-11-22T03:53:26;5.00;94.33
64652;HTU21D;51062;45.120;37.660;2023-11-22T03:55:52;5.01;94.33
64652;HTU21D;51062;45.120;37.660;2023-11-22T03:58:18;5.03;94.34
64652;HTU21D;51062;45.120;37.660;2023-11-22T04:00:44;5.02;94.32
64652;HTU21D;51062;45.120;37.660;2023-11-22T04:03:10;5.03;94.33
64652;HTU21D;51062;45.120;37.660;2023-11-22T04:05:36;5.04;94.29
64652;HTU21D;51062;45.120;37.660;2023-11-22T04:08:01;5.05;94.24
64652;HTU21D;51062;45.120;37.660;2023-11-22T04:10:27;5.09;94.18
64652;HTU21D;51062;45.120;37.660;2023-11-22T04:12:53;5.06;94.16
64652;HTU21D;51062;45.120;37.660;2023-11-22T04:15:19;5.06;94.12
64652;HTU21D;51062;45.120;37.660;2023-11-22T04:17:45;5.08;94.10
64652;HTU21D;51062;45.120;37.660;2023-11-22T04:20:12;5.08;94.07
64652;HTU21D;51062;45.120;37.660;2023-11-22T04:22:43;5.05;94.05
64652;HTU21D;51062;45.120;37.660;2023-11-22T04:25:10;5.04;94.04
64652;HTU21D;51062;45.120;37.660;2023-11-22T04:27:39;5.07;94.01
64652;HTU21D;51062;45.120;37.660;2023-11-22T04:30:08;5.07;94.02
64652;HTU21D;51062;45.120;37.660;2023-11-22T04:32:38;5.08;94.04
64652;HTU21D;51062;45.120;37.660;2023-11-22T04:35:05;5.07;94.04
64652;HTU21D;51062;45.120;37.660;2023-11-22T04:37:31;0.00;93.95
64652;HTU21D;51062;45.120;37.660;2023-11-22T04:40:00;5.04;93.95
64652;HTU21D;51062;45.120;37.660;2023-11-22T04:42:26;5.03;93.97
64652;HTU21D;51062;45.120;37.660;2023-11-22T04:44:53;5.03;93.98
64652;HTU21D;51062;45.120;37.660;2023-11-22T04:47:19;5.02;93.96
64652;HTU21D;51062;45.120;37.660;2023-11-22T04:49:47;5.03;93.91
64652;HTU21D;51062;45.120;37.660;2023-11-22T04:52:13;5.00;93.91
64652;HTU21D;51062;45.120;37.660;2023-11-22T04:54:40;4.97;93.99
64652;HTU21D;51062;45.120;37.660;2023-11-22T04:57:06;4.98;94.01
64652;HTU21D;51062;45.120;37.660;2023-11-22T04:59:32;4.98;93.99
64652;HTU21D;51062;45.120;37.660;2023-11-22T05:01:58;5.00;94.03
64652;HTU21D;51062;45.120;37.660;2023-11-22T05:04:24;5.00;93.97
64652;HTU21D;51062;45.120;37.660;2023-11-22T05:06:53;4.98;93.94
64652;HTU21D;51062;45.120;37.660;2023-11-22T05:09:19;4.98;93.88
64652;HTU21D;51062;45.120;37.660;2023-11-22T05:11:45;4.97;93.84
64652;HTU21D;51062;45.120;37.660;2023-11-22T05:14:11;4.97;93.78
64652;HTU21D;51062;45.120;37.660;2023-11-22T05:16:38;4.96;93.69
64652;HTU21D;51062;45.120;37.660;2023-11-22T05:19:05;4.96;93.63
64652;HTU21D;51062;45.120;37.660;2023-11-22T05:21:31;4.94;93.59
64652;HTU21D;51062;45.120;37.660;2023-11-22T05:23:58;4.90;93.62
64652;HTU21D;51062;45.120;37.660;2023-11-22T05:26:24;4.87;93.67
64652;HTU21D;51062;45.120;37.660;2023-11-22T05:28:51;4.86;93.71
64652;HTU21D;51062;45.120;37.660;2023-11-22T05:31:19;4.84;93.68
64652;HTU21D;51062;45.120;37.660;2023-11-22T05:33:45;4.84;93.69
64652;HTU21D;51062;45.120;37.660;2023-11-22T05:36:11;4.81;93.62
64652;HTU21D;51062;45.120;37.660;2023-11-22T05:38:37;4.78;93.54
64652;HTU21D;51062;45.120;37.660;2023-11-22T05:41:03;4.79;93.49
64652;HTU21D;51062;45.120;37.660;2023-11-22T05:43:29;4.78;93.45
64652;HTU21D;51062;45.120;37.660;2023-11-22T05:45:56;4.75;93.38
64652;HTU21D;51062;45.120;37.660;2023-11-22T05:48:21;4.74;93.34
64652;HTU21D;51062;45.120;37.660;2023-11-22T05:50:47;4.72;93.23
64652;HTU21D;51062;45.120;37.660;2023-11-22T05:53:14;4.67;93.15
64652;HTU21D;51062;45.120;37.660;2023-11-22T05:55:49;4.62;93.14
64652;HTU21D;51062;45.120;37.660;2023-11-22T05:58:16;4.57;93.19
64652;HTU21D;51062;45.120;37.660;2023-11-22T06:00:48;4.53;93.22
64652;HTU21D;51062;45.120;37.660;2023-11-22T06:03:14;4.51;93.33
64652;HTU21D;51062;45.120;37.660;2023-11-22T06:05:40;4.49;93.43
64652;HTU21D;51062;45.120;37.660;2023-11-22T06:08:06;4.50;93.47
64652;HTU21D;51062;45.120;37.660;2023-11-22T06:10:32;4.49;93.42
64652;HTU21D;51062;45.120;37.660;2023-11-22T06:12:58;4.48;93.37
64652;HTU21D;51062;45.120;37.660;2023-11-22T06:15:23;4.49;93.19
64652;HTU21D;51062;45.120;37.660;2023-11-22T06:17:49;4.45;93.05
64652;HTU21D;51062;45.120;37.660;2023-11-22T06:20:16;4.38;92.93
64652;HTU21D;51062;45.120;37.660;2023-11-22T06:22:42;4.30;92.93
64652;HTU21D;51062;45.120;37.660;2023-11-22T06:25:08;4.26;93.08
64652;HTU21D;51062;45.120;37.660;2023-11-22T06:27:36;4.27;93.10
64652;HTU21D;51062;45.120;37.660;2023-11-22T06:30:02;4.27;93.03
64652;HTU21D;51062;45.120;37.660;2023-11-22T06:32:29;0.00;93.09
64652;HTU21D;51062;45.120;37.660;2023-11-22T06:34:54;4.18;93.19
64652;HTU21D;51062;45.120;37.660;2023-11-22T06:37:20;4.15;93.15
64652;HTU21D;51062;45.120;37.660;2023-11-22T06:39:46;4.14;93.27
64652;HTU21D;51062;45.120;37.660;2023-11-22T06:42:12;4.16;93.22
64652;HTU21D;51062;45.120;37.660;2023-11-22T06:44:39;4.15;93.21
64652;HTU21D;51062;45.120;37.660;2023-11-22T06:47:05;4.19;93.17
64652;HTU21D;51062;45.120;37.660;2023-11-22T06:49:33;4.20;93.17
64652;HTU21D;51062;45.120;37.660;2023-11-22T06:51:59;0.00;93.23
64652;HTU21D;51062;45.120;37.660;2023-11-22T06:54:25;4.18;93.18
64652;HTU21D;51062;45.120;37.660;2023-11-22T06:56:52;0.00;92.83
64652;HTU21D;51062;45.120;37.660;2023-11-22T06:59:18;4.06;92.78
64652;HTU21D;51062;45.120;37.660;2023-11-22T07:01:44;4.02;92.80
64652;HTU21D;51062;45.120;37.660;2023-11-22T07:04:11;3.95;92.80
64652;HTU21D;51062;45.120;37.660;2023-11-22T07:06:37;3.90;92.76
64652;HTU21D;51062;45.120;37.660;2023-11-22T07:09:04;3.85;92.72
64652;HTU21D;51062;45.120;37.660;2023-11-22T07:11:30;3.83;92.75
64652;HTU21D;51062;45.120;37.660;2023-11-22T07:13:56;3.75;92.72
64652;HTU21D;51062;45.120;37.660;2023-11-22T07:16:23;3.71;92.80
64652;HTU21D;51062;45.120;37.660;2023-11-22T07:18:50;3.71;92.95
64652;HTU21D;51062;45.120;37.660;2023-11-22T07:21:16;3.71;93.06
64652;HTU21D;51062;45.120;37.660;2023-11-22T07:23:46;3.71;93.16
64652;HTU21D;51062;45.120;37.660;2023-11-22T07:26:12;3.73;93.25
64652;HTU21D;51062;45.120;37.660;2023-11-22T07:28:41;3.76;93.30
64652;HTU21D;51062;45.120;37.660;2023-11-22T07:31:07;3.82;93.32
64652;HTU21D;51062;45.120;37.660;2023-11-22T07:33:33;3.85;93.17
64652;HTU21D;51062;45.120;37.660;2023-11-22T07:35:59;3.80;93.16
64652;HTU21D;51062;45.120;37.660;2023-11-22T07:38:25;3.76;93.31
64652;HTU21D;51062;45.120;37.660;2023-11-22T07:40:51;3.78;93.46
64652;HTU21D;51062;45.120;37.660;2023-11-22T07:43:17;3.82;93.45
64652;HTU21D;51062;45.120;37.660;2023-11-22T07:45:44;3.88;93.30
64652;HTU21D;51062;45.120;37.660;2023-11-22T07:48:10;3.92;93.23
64652;HTU21D;51062;45.120;37.660;2023-11-22T07:50:39;3.90;93.30
64652;HTU21D;51062;45.120;37.660;2023-11-22T07:53:09;3.88;93.24
64652;HTU21D;51062;45.120;37.660;2023-11-22T07:55:37;3.85;93.33
64652;HTU21D;51062;45.120;37.660;2023-11-22T07:58:03;3.84;93.45
64652;HTU21D;51062;45.120;37.660;2023-11-22T08:00:32;3.85;93.48
64652;HTU21D;51062;45.120;37.660;2023-11-22T08:02:59;3.89;93.36
64652;HTU21D;51062;45.120;37.660;2023-11-22T08:05:31;3.90;93.07
64652;HTU21D;51062;45.120;37.660;2023-11-22T08:08:02;3.84;92.94
64652;HTU21D;51062;45.120;37.660;2023-11-22T08:10:32;3.80;93.11
64652;HTU21D;51062;45.120;37.660;2023-11-22T08:12:58;3.77;93.17
64652;HTU21D;51062;45.120;37.660;2023-11-22T08:15:24;3.72;93.24
64652;HTU21D;51062;45.120;37.660;2023-11-22T08:17:49;3.69;93.38
64652;HTU21D;51062;45.120;37.660;2023-11-22T08:20:15;3.72;93.41
64652;HTU21D;51062;45.120;37.660;2023-11-22T08:22:46;3.72;93.34
64652;HTU21D;51062;45.120;37.660;2023-11-22T08:25:13;3.70;93.46
64652;HTU21D;51062;45.120;37.660;2023-11-22T08:27:40;3.68;93.39
64652;HTU21D;51062;45.120;37.660;2023-11-22T08:30:09;3.59;93.33
64652;HTU21D;51062;45.120;37.660;2023-11-22T08:32:39;3.56;93.47
64652;HTU21D;51062;45.120;37.660;2023-11-22T08:35:07;3.57;93.54
64652;HTU21D;51062;45.120;37.660;2023-11-22T08:37:34;3.53;93.54
64652;HTU21D;51062;45.120;37.660;2023-11-22T08:40:02;3.55;93.71
64652;HTU21D;51062;45.120;37.660;2023-11-22T08:42:28;3.58;93.80
64652;HTU21D;51062;45.120;37.660;2023-11-22T08:44:54;3.60;93.88
64652;HTU21D;51062;45.120;37.660;2023-11-22T08:47:20;3.64;93.90
64652;HTU21D;51062;45.120;37.660;2023-11-22T08:49:46;3.64;93.88
64652;HTU21D;51062;45.120;37.660;2023-11-22T08:52:13;3.63;93.88
64652;HTU21D;51062;45.120;37.660;2023-11-22T08:54:39;3.63;93.95
64652;HTU21D;51062;45.120;37.660;2023-11-22T08:57:06;3.65;93.95
64652;HTU21D;51062;45.120;37.660;2023-11-22T08:59:33;3.64;93.85
64652;HTU21D;51062;45.120;37.660;2023-11-22T09:02:04;3.62;93.88
64652;HTU21D;51062;45.120;37.660;2023-11-22T09:04:30;3.63;93.93
64652;HTU21D;51062;45.120;37.660;2023-11-22T09:06:57;3.68;93.87
64652;HTU21D;51062;45.120;37.660;2023-11-22T09:09:23;3.68;93.74
64652;HTU21D;51062;45.120;37.660;2023-11-22T09:11:57;3.70;93.82
64652;HTU21D;51062;45.120;37.660;2023-11-22T09:14:23;3.69;93.88
64652;HTU21D;51062;45.120;37.660;2023-11-22T09:16:52;3.64;93.96
64652;HTU21D;51062;45.120;37.660;2023-11-22T09:19:21;3.65;94.14
64652;HTU21D;51062;45.120;37.660;2023-11-22T09:21:47;3.65;94.21
64652;HTU21D;51062;45.120;37.660;2023-11-22T09:24:13;3.68;94.27
64652;HTU21D;51062;45.120;37.660;2023-11-22T09:26:39;3.70;94.27
64652;HTU21D;51062;45.120;37.660;2023-11-22T09:29:06;3.70;94.16
64652;HTU21D;51062;45.120;37.660;2023-11-22T09:31:31;3.69;94.11
64652;HTU21D;51062;45.120;37.660;2023-11-22T09:33:57;3.68;94.01
64652;HTU21D;51062;45.120;37.660;2023-11-22T09:36:23;3.68;93.98
64652;HTU21D;51062;45.120;37.660;2023-11-22T09:38:53;3.69;93.75
64652;HTU21D;51062;45.120;37.660;2023-11-22T09:41:18;3.68;93.69
64652;HTU21D;51062;45.120;37.660;2023-11-22T09:43:44;3.62;93.71
64652;HTU21D;51062;45.120;37.660;2023-11-22T09:46:15;3.58;93.76
64652;HTU21D;51062;45.120;37.660;2023-11-22T09:48:45;3.54;93.78
64652;HTU21D;51062;45.120;37.660;2023-11-22T09:51:20;3.52;93.78
64652;HTU21D;51062;45.120;37.660;2023-11-22T09:53:52;3.47;93.71
64652;HTU21D;51062;45.120;37.660;2023-11-22T09:56:19;3.46;93.74
64652;HTU21D;51062;45.120;37.660;2023-11-22T09:58:45;3.45;93.73
64652;HTU21D;51062;45.120;37.660;2023-11-22T10:01:13;3.46;93.69
64652;HTU21D;51062;45.120;37.660;2023-11-22T10:03:39;3.40;93.60
64652;HTU21D;51062;45.120;37.660;2023-11-22T10:06:06;3.35;93.56
64652;HTU21D;51062;45.120;37.660;2023-11-22T10:08:32;3.32;93.63
64652;HTU21D;51062;45.120;37.660;2023-11-22T10:10:58;3.33;93.62
64652;HTU21D;51062;45.120;37.660;2023-11-22T10:13:25;3.34;93.66
64652;HTU21D;51062;45.120;37.660;2023-11-22T10:15:51;3.39;93.63
64652;HTU21D;51062;45.120;37.660;2023-11-22T10:18:18;3.43;93.43
64652;HTU21D;51062;45.120;37.660;2023-11-22T10:20:46;3.44;93.27
64652;HTU21D;51062;45.120;37.660;2023-11-22T10:23:13;3.41;93.24
64652;HTU21D;51062;45.120;37.660;2023-11-22T10:25:45;3.35;93.23
64652;HTU21D;51062;45.120;37.660;2023-11-22T10:28:13;3.32;93.24
64652;HTU21D;51062;45.120;37.660;2023-11-22T10:30:39;3.29;93.27
64652;HTU21D;51062;45.120;37.660;2023-11-22T10:33:06;3.26;93.21
64652;HTU21D;51062;45.120;37.660;2023-11-22T10:35:32;3.21;93.22
64652;HTU21D;51062;45.120;37.660;2023-11-22T10:38:01;3.16;93.20
64652;HTU21D;51062;45.120;37.660;2023-11-22T10:40:32;3.13;93.25
64652;HTU21D;51062;45.120;37.660;2023-11-22T10:42:58;3.12;93.30
64652;HTU21D;51062;45.120;37.660;2023-11-22T10:45:24;3.09;93.32
64652;HTU21D;51062;45.120;37.660;2023-11-22T10:47:52;3.06;93.44
64652;HTU21D;51062;45.120;37.660;2023-11-22T10:50:20;3.06;93.51
64652;HTU21D;51062;45.120;37.660;2023-11-22T10:52:47;3.06;93.53
64652;HTU21D;51062;45.120;37.660;2023-11-22T10:55:18;3.03;93.51
64652;HTU21D;51062;45.120;37.660;2023-11-22T10:57:45;3.01;93.66
64652;HTU21D;51062;45.120;37.660;2023-11-22T11:00:14;3.00;93.72
64652;HTU21D;51062;45.120;37.660;2023-11-22T11:02:43;3.05;93.89
64652;HTU21D;51062;45.120;37.660;2023-11-22T11:05:15;3.08;93.90
64652;HTU21D;51062;45.120;37.660;2023-11-22T11:07:47;3.09;94.00
64652;HTU21D;51062;45.120;37.660;2023-11-22T11:10:15;3.11;93.96
64652;HTU21D;51062;45.120;37.660;2023-11-22T11:12:41;3.09;93.88
64652;HTU21D;51062;45.120;37.660;2023-11-22T11:15:08;3.06;94.00
64652;HTU21D;51062;45.120;37.660;2023-11-22T11:17:35;3.08;94.12
64652;HTU21D;51062;45.120;37.660;2023-11-22T11:20:03;3.09;94.20
64652;HTU21D;51062;45.120;37.660;2023-11-22T11:22:30;3.09;94.16
64652;HTU21D;51062;45.120;37.660;2023-11-22T11:25:02;3.09;94.23
64652;HTU21D;51062;45.120;37.660;2023-11-22T11:27:32;3.10;94.28
64652;HTU21D;51062;45.120;37.660;2023-11-22T11:29:58;3.08;94.26
64652;HTU21D;51062;45.120;37.660;2023-11-22T11:32:31;3.04;94.23
64652;HTU21D;51062;45.120;37.660;2023-11-22T11:35:03;3.01;94.21
64652;HTU21D;51062;45.120;37.660;2023-11-22T11:37:32;2.99;94.24
64652;HTU21D;51062;45.120;37.660;2023-11-22T11:39:58;2.98;94.30
64652;HTU21D;51062;45.120;37.660;2023-11-22T11:42:24;2.96;94.30
64652;HTU21D;51062;45.120;37.660;2023-11-22T11:47:24;2.93;94.47
64652;HTU21D;51062;45.120;37.660;2023-11-22T11:49:50;2.95;94.50
64652;HTU21D;51062;45.120;37.660;2023-11-22T11:52:16;2.98;94.56
64652;HTU21D;51062;45.120;37.660;2023-11-22T11:54:42;2.99;94.47
64652;HTU21D;51062;45.120;37.660;2023-11-22T11:57:09;3.00;94.46
64652;HTU21D;51062;45.120;37.660;2023-11-22T11:59:35;2.97;94.42
64652;HTU21D;51062;45.120;37.660;2023-11-22T12:02:01;2.96;94.43
64652;HTU21D;51062;45.120;37.660;2023-11-22T12:04:27;2.98;94.39
64652;HTU21D;51062;45.120;37.660;2023-11-22T12:06:53;2.96;94.32
64652;HTU21D;51062;45.120;37.660;2023-11-22T12:09:22;2.94;94.39
64652;HTU21D;51062;45.120;37.660;2023-11-22T12:11:51;2.94;94.40
64652;HTU21D;51062;45.120;37.660;2023-11-22T12:14:22;2.95;94.38
64652;HTU21D;51062;45.120;37.660;2023-11-22T12:16:51;2.94;94.29
64652;HTU21D;51062;45.120;37.660;2023-11-22T12:19:25;2.91;94.34
64652;HTU21D;51062;45.120;37.660;2023-11-22T12:21:52;2.91;94.42
64652;HTU21D;51062;45.120;37.660;2023-11-22T12:24:18;2.87;94.43
64652;HTU21D;51062;45.120;37.660;2023-11-22T12:26:48;2.86;94.49
64652;HTU21D;51062;45.120;37.660;2023-11-22T12:29:17;2.84;94.53
64652;HTU21D;51062;45.120;37.660;2023-11-22T12:31:50;2.85;94.59
64652;HTU21D;51062;45.120;37.660;2023-11-22T12:34:17;2.86;94.60
64652;HTU21D;51062;45.120;37.660;2023-11-22T12:36:43;2.86;94.60
64652;HTU21D;51062;45.120;37.660;2023-11-22T12:39:11;2.88;94.62
64652;HTU21D;51062;45.120;37.660;2023-11-22T12:41:49;2.89;94.55
64652;HTU21D;51062;45.120;37.660;2023-11-22T12:44:16;2.91;94.55
64652;HTU21D;51062;45.120;37.660;2023-11-22T12:46:52;2.89;94.56
64652;HTU21D;51062;45.120;37.660;2023-11-22T12:49:26;2.91;94.61
64652;HTU21D;51062;45.120;37.660;2023-11-22T12:51:53;2.94;94.59
64652;HTU21D;51062;45.120;37.660;2023-11-22T12:54:19;2.95;94.60
64652;HTU21D;51062;45.120;37.660;2023-11-22T12:56:47;2.96;94.59
64652;HTU21D;51062;45.120;37.660;2023-11-22T12:59:14;3.00;94.52
64652;HTU21D;51062;45.120;37.660;2023-11-22T13:01:40;3.03;94.52
64652;HTU21D;51062;45.120;37.660;2023-11-22T13:04:07;3.02;94.51
64652;HTU21D;51062;45.120;37.660;2023-11-22T13:06:33;3.04;94.57
64652;HTU21D;51062;45.120;37.660;2023-11-22T13:08:59;3.04;94.62
64652;HTU21D;51062;45.120;37.660;2023-11-22T13:11:25;3.06;94.65
64652;HTU21D;51062;45.120;37.660;2023-11-22T13:13:51;3.11;94.69
64652;HTU21D;51062;45.120;37.660;2023-11-22T13:16:17;3.14;94.66
64652;HTU21D;51062;45.120;37.660;2023-11-22T13:18:44;3.16;94.62
64652;HTU21D;51062;45.120;37.660;2023-11-22T13:21:10;3.17;94.65
64652;HTU21D;51062;45.120;37.660;2023-11-22T13:23:36;3.18;94.65
64652;HTU21D;51062;45.120;37.660;2023-11-22T13:26:02;3.16;94.65
64652;HTU21D;51062;45.120;37.660;2023-11-22T13:28:28;0.00;94.65
64652;HTU21D;51062;45.120;37.660;2023-11-22T13:30:54;3.17;94.59
64652;HTU21D;51062;45.120;37.660;2023-11-22T13:33:20;3.17;94.59
64652;HTU21D;51062;45.120;37.660;2023-11-22T13:35:46;3.18;94.59
64652;HTU21D;51062;45.120;37.660;2023-11-22T13:38:12;3.20;94.55
64652;HTU21D;51062;45.120;37.660;2023-11-22T13:40:39;3.18;94.52
64652;HTU21D;51062;45.120;37.660;2023-11-22T13:43:07;3.17;94.58
64652;HTU21D;51062;45.120;37.660;2023-11-22T13:45:35;3.17;94.60
64652;HTU21D;51062;45.120;37.660;2023-11-22T13:48:01;3.16;94.61
64652;HTU21D;51062;45.120;37.660;2023-11-22T13:50:32;3.15;94.63
64652;HTU21D;51062;45.120;37.660;2023-11-22T13:52:58;3.16;94.67
64652;HTU21D;51062;45.120;37.660;2023-11-22T13:55:25;3.19;94.64
64652;HTU21D;51062;45.120;37.660;2023-11-22T13:57:55;3.20;94.57
64652;HTU21D;51062;45.120;37.660;2023-11-22T14:00:21;3.19;94.55
64652;HTU21D;51062;45.120;37.660;2023-11-22T14:02:53;3.19;94.56
64652;HTU21D;51062;45.120;37.660;2023-11-22T14:05:24;3.16;94.59
64652;HTU21D;51062;45.120;37.660;2023-11-22T14:07:50;3.16;94.59
64652;HTU21D;51062;45.120;37.660;2023-11-22T14:10:18;3.18;94.60
64652;HTU21D;51062;45.120;37.660;2023-11-22T14:12:44;3.19;94.56
64652;HTU21D;51062;45.120;37.660;2023-11-22T14:15:11;3.21;94.49
64652;HTU21D;51062;45.120;37.660;2023-11-22T14:17:37;3.18;94.50
64652;HTU21D;51062;45.120;37.660;2023-11-22T14:20:07;3.18;94.57
64652;HTU21D;51062;45.120;37.660;2023-11-22T14:22:35;3.16;94.65
64652;HTU21D;51062;45.120;37.660;2023-11-22T14:25:01;3.19;94.69
64652;HTU21D;51062;45.120;37.660;2023-11-22T14:27:28;3.18;94.69
64652;HTU21D;51062;45.120;37.660;2023-11-22T14:29:56;3.19;94.69
64652;HTU21D;51062;45.120;37.660;2023-11-22T14:32:22;3.21;94.72
64652;HTU21D;51062;45.120;37.660;2023-11-22T14:34:48;3.24;94.67
64652;HTU21D;51062;45.120;37.660;2023-11-22T14:37:14;3.24;94.66
64652;HTU21D;51062;45.120;37.660;2023-11-22T14:39:41;3.25;94.64
64652;HTU21D;51062;45.120;37.660;2023-11-22T14:42:08;3.26;94.68
64652;HTU21D;51062;45.120;37.660;2023-11-22T14:44:34;3.26;94.69
64652;HTU21D;51062;45.120;37.660;2023-11-22T14:47:03;3.25;94.74
64652;HTU21D;51062;45.120;37.660;2023-11-22T14:49:32;3.27;94.75
64652;HTU21D;51062;45.120;37.660;2023-11-22T14:51:59;3.27;94.72
64652;HTU21D;51062;45.120;37.660;2023-11-22T14:54:25;3.24;94.72
64652;HTU21D;51062;45.120;37.660;2023-11-22T14:56:51;3.24;94.76
64652;HTU21D;51062;45.120;37.660;2023-11-22T14:59:18;3.27;94.78
64652;HTU21D;51062;45.120;37.660;2023-11-22T15:01:44;3.28;94.75
64652;HTU21D;51062;45.120;37.660;2023-11-22T15:04:12;3.29;94.72
64652;HTU21D;51062;45.120;37.660;2023-11-22T15:06:38;3.30;94.75
64652;HTU21D;51062;45.120;37.660;2023-11-22T15:09:03;3.29;94.72
64652;HTU21D;51062;45.120;37.660;2023-11-22T15:11:38;3.29;94.72
64652;HTU21D;51062;45.120;37.660;2023-11-22T15:14:04;3.30;94.72
64652;HTU21D;51062;45.120;37.660;2023-11-22T15:16:30;3.32;94.69